SBOSBO SAN / KSAN
Speedbird OnlineSpeedbird Online SAN / KSAN

San Diego International Airport
08:44 17.5°C

Location San Diego, United States
Latitude: 32.7336006165
Longitude: -117.190002441
Local Time 08:44 on 17 Apr 2024
UTC -7 hours (America/Los_Angeles)
Currency £1 equals USD 1.25
METAR KSAN 171451Z 00000KT 10SM FEW005 FEW250 16/10 A3002 RMK AO2 SLP166 T01560100 53002 $
TAF KSAN 171430Z 1715/1818 VRB03KT P6SM FEW002 FEW250 FM171900 29009KT P6SM SKC FM180300 VRB04KT P6SM SCT012 FM180600 VRB03KT P6SM OVC012 FM181600 VRB04KT P6SM SCT015 BKN200
Weather As Of 17 Apr 2024 08:44
Description Few clouds
Wind 7 km/h from East (80°)
Cloud Cover 20%
Precipitation Rain: none, Snow: none
Sunrise 06:15
Sunset 19:20
NOTAM 69 active NOTAM
Rotations During the last 90 days there were
76 flights from LHR
22 flights from PHX
80 flights to LHR
41 flights to PHL
5 flights to PHX
Lounges Aspire Lounge, Terminal 2
Web Airport Website | Wikipedia
Codes IATA: SAN
ICAO: KSAN
Altitude 5 Meter / 17 Feet
Distance 8,835 KM / 5,490 Miles
from London.
Runways
RunwayLength (m)Surface
092865Partial
272865Partial
Radio
TypeDescriptionFrequency
A/DSOCAL APP/DEP119.6
ATISATIS134.8
CLDCLNC DEL125.9
GNDGND123.9
MISCCG157.15
MISCCG898.4
TWRLINDBERGH TWR118.3
UNICUNICOM122.95
Live ATC



Support Speedbird Online

© 2017-2024 Speedbird Online